createdAt,value
2018-06-27T00:01:23.332Z,101420.75
2018-06-27T00:03:51.391Z,101419.58
2018-06-27T00:06:19.736Z,101427.52
2018-06-27T00:08:47.804Z,101425.74
2018-06-27T00:11:15.887Z,101424.32
2018-06-27T00:13:43.976Z,101423.30
2018-06-27T00:16:12.053Z,101422.23
2018-06-27T00:18:40.175Z,101424.99
2018-06-27T00:21:08.476Z,101426.05
2018-06-27T00:23:36.590Z,101423.71
2018-06-27T00:26:04.672Z,101424.95
2018-06-27T00:28:32.775Z,101427.00
2018-06-27T00:31:00.848Z,101426.86
2018-06-27T00:33:28.883Z,101425.58
2018-06-27T00:35:56.931Z,101427.41
2018-06-27T00:38:24.987Z,101429.92
2018-06-27T00:40:53.031Z,101423.02
2018-06-27T00:43:21.077Z,101425.78
2018-06-27T00:45:49.153Z,101420.00
2018-06-27T00:48:17.224Z,101426.09
2018-06-27T00:50:45.354Z,101422.30
2018-06-27T00:53:13.427Z,101429.56
2018-06-27T00:55:41.565Z,101422.25
2018-06-27T00:58:09.676Z,101431.67
2018-06-27T01:00:37.731Z,101430.64
2018-06-27T01:03:06.106Z,101427.73
2018-06-27T01:05:34.123Z,101428.14
2018-06-27T01:08:02.167Z,101429.41
2018-06-27T01:10:30.238Z,101428.12
2018-06-27T01:12:58.271Z,101431.45
2018-06-27T01:15:26.323Z,101438.77
2018-06-27T01:17:58.080Z,101444.13
2018-06-27T01:20:26.683Z,101437.02
2018-06-27T01:22:54.733Z,101445.77
2018-06-27T01:25:22.758Z,101446.80
2018-06-27T01:27:50.814Z,101442.34
2018-06-27T01:30:18.895Z,101442.59
2018-06-27T01:32:46.919Z,101448.53
2018-06-27T01:35:15.192Z,101446.33
2018-06-27T01:37:43.467Z,101443.00
2018-06-27T01:40:11.492Z,101433.59
2018-06-27T01:42:39.526Z,101435.44
2018-06-27T01:45:07.563Z,101440.30
2018-06-27T01:47:35.687Z,101433.64
2018-06-27T01:50:03.745Z,101431.66
2018-06-27T01:52:33.131Z,101432.02
2018-06-27T01:55:01.205Z,101442.91
2018-06-27T01:57:29.497Z,101434.16
2018-06-27T01:59:57.556Z,101447.96
2018-06-27T02:02:25.647Z,101438.95
2018-06-27T02:04:53.693Z,101440.19
2018-06-27T02:07:21.736Z,101437.52
2018-06-27T02:09:49.774Z,101444.98
2018-06-27T02:12:17.835Z,101448.73
2018-06-27T02:14:45.904Z,101446.38
2018-06-27T02:17:13.960Z,101450.05
2018-06-27T02:19:42.075Z,101448.57
2018-06-27T02:22:10.188Z,101449.86
2018-06-27T02:24:38.288Z,101452.55
2018-06-27T02:27:06.372Z,101443.95
2018-06-27T02:29:34.409Z,101451.08
2018-06-27T02:32:02.456Z,101445.09
2018-06-27T02:34:30.529Z,101440.37
2018-06-27T02:36:58.577Z,101436.70
2018-06-27T02:39:26.633Z,101438.09
2018-06-27T02:41:54.675Z,101439.47
2018-06-27T02:44:22.735Z,101436.23
2018-06-27T02:46:51.172Z,101439.47
2018-06-27T02:49:19.225Z,101439.47
2018-06-27T02:51:47.274Z,101437.52
2018-06-27T02:54:15.628Z,101436.95
2018-06-27T02:56:43.700Z,101437.42
2018-06-27T02:59:11.800Z,101449.19
2018-06-27T03:01:39.893Z,101449.44
2018-06-27T03:04:08.104Z,101455.08
2018-06-27T03:06:36.180Z,101458.44
2018-06-27T03:09:06.116Z,101455.90
2018-06-27T03:11:34.175Z,101459.47
2018-06-27T03:14:02.294Z,101454.77
2018-06-27T03:16:30.342Z,101458.44
2018-06-27T03:18:58.471Z,101460.05
2018-06-27T03:21:26.640Z,101461.92
2018-06-27T03:23:54.880Z,101463.30
2018-06-27T03:26:22.939Z,101464.09
2018-06-27T03:28:51.088Z,101463.05
2018-06-27T03:31:19.661Z,101460.30
2018-06-27T03:33:47.761Z,101463.30
2018-06-27T03:36:15.836Z,101461.83
2018-06-27T03:38:43.936Z,101464.70
2018-06-27T03:41:12.039Z,101459.84
2018-06-27T03:43:40.173Z,101462.05
2018-06-27T03:46:08.313Z,101464.55
2018-06-27T03:48:36.857Z,101464.82
2018-06-27T03:51:04.917Z,101461.79
2018-06-27T03:53:42.262Z,101457.69
2018-06-27T03:56:12.495Z,101460.34
2018-06-27T03:58:40.663Z,101461.42
2018-06-27T04:01:09.980Z,101455.73
2018-06-27T04:03:39.070Z,101468.09
2018-06-27T04:06:07.545Z,101460.41
2018-06-27T04:08:35.612Z,101455.84
2018-06-27T04:11:03.644Z,101459.56
2018-06-27T04:13:31.811Z,101459.06
2018-06-27T04:16:00.133Z,101459.69
2018-06-27T04:18:28.274Z,101459.98
2018-06-27T04:20:56.360Z,101461.09
2018-06-27T04:23:24.423Z,101462.16
2018-06-27T04:25:52.508Z,101458.31
2018-06-27T04:28:21.035Z,101462.04
2018-06-27T04:30:49.288Z,101455.64
2018-06-27T04:33:17.453Z,101451.22
2018-06-27T04:35:45.545Z,101445.03
2018-06-27T04:38:13.619Z,101451.06
2018-06-27T04:40:41.723Z,101446.27
2018-06-27T04:43:09.836Z,101439.05
2018-06-27T04:45:37.922Z,101442.92
2018-06-27T04:48:05.976Z,101446.91
2018-06-27T04:50:34.029Z,101449.86
2018-06-27T04:53:02.067Z,101451.59
2018-06-27T04:55:30.132Z,101448.56
2018-06-27T04:57:58.177Z,101452.03
2018-06-27T05:00:26.219Z,101451.97
2018-06-27T05:02:54.416Z,101449.33
2018-06-27T05:05:22.439Z,101452.44
2018-06-27T05:07:50.513Z,101447.27
2018-06-27T05:10:19.109Z,101448.64
2018-06-27T05:12:47.153Z,101446.04
2018-06-27T05:15:15.188Z,101450.44
2018-06-27T05:17:43.333Z,101454.98
2018-06-27T05:20:11.588Z,101457.65
2018-06-27T05:22:39.639Z,101457.31
2018-06-27T05:25:07.746Z,101449.02
2018-06-27T05:27:36.220Z,101449.47
2018-06-27T05:30:04.580Z,101454.28
2018-06-27T05:32:32.951Z,101454.28
2018-06-27T05:35:00.927Z,101454.80
2018-06-27T05:37:28.961Z,101454.13
2018-06-27T05:39:57.028Z,101447.86
2018-06-27T05:42:25.075Z,101450.23
2018-06-27T05:44:53.285Z,101457.28
2018-06-27T05:47:21.322Z,101448.92
2018-06-27T05:49:49.444Z,101466.65
2018-06-27T05:52:17.507Z,101468.52
2018-06-27T05:54:45.603Z,101463.14
2018-06-27T05:57:14.028Z,101473.02
2018-06-27T05:59:42.112Z,101469.06
2018-06-27T06:02:10.281Z,101477.08
2018-06-27T06:04:38.628Z,101477.71
2018-06-27T06:07:06.693Z,101473.70
2018-06-27T06:09:34.735Z,101471.88
2018-06-27T06:12:02.783Z,101476.63
2018-06-27T06:14:30.816Z,101470.69
2018-06-27T06:16:58.847Z,101477.73
2018-06-27T06:19:27.447Z,101474.88
2018-06-27T06:21:55.502Z,101477.81
2018-06-27T06:24:23.556Z,101482.34
2018-06-27T06:26:51.587Z,101490.77
2018-06-27T06:29:19.644Z,101486.26
2018-06-27T06:31:47.708Z,101491.40
2018-06-27T06:34:15.790Z,101492.34
2018-06-27T06:36:43.908Z,101489.25
2018-06-27T06:39:11.988Z,101484.00
2018-06-27T06:41:40.131Z,101484.66
2018-06-27T06:44:08.908Z,101482.78
2018-06-27T06:46:37.060Z,101483.98
2018-06-27T06:49:05.095Z,101473.06
2018-06-27T06:51:33.156Z,101476.30
2018-06-27T06:54:01.226Z,101469.83
2018-06-27T06:56:29.325Z,101462.72
2018-06-27T06:58:57.350Z,101461.57
2018-06-27T07:01:25.380Z,101457.88
2018-06-27T07:03:53.431Z,101463.30
2018-06-27T07:06:21.500Z,101464.64
2018-06-27T07:08:49.559Z,101459.20
2018-06-27T07:13:48.268Z,101455.94
2018-06-27T07:16:16.337Z,101450.73
2018-06-27T07:18:44.500Z,101453.91
2018-06-27T07:21:12.630Z,101453.30
2018-06-27T07:23:40.725Z,101453.64
2018-06-27T07:26:08.860Z,101454.02
2018-06-27T07:28:37.032Z,101455.32
2018-06-27T07:31:05.000Z,101453.89
2018-06-27T07:33:33.027Z,101448.13
2018-06-27T07:36:01.393Z,101452.97
2018-06-27T07:38:29.349Z,101456.19
2018-06-27T07:40:57.372Z,101452.59
2018-06-27T07:43:25.419Z,101453.27
2018-06-27T07:45:53.470Z,101451.28
2018-06-27T07:48:21.808Z,101451.77
2018-06-27T07:50:49.848Z,101452.50
2018-06-27T07:53:17.884Z,101457.56
2018-06-27T07:55:46.141Z,101463.38
2018-06-27T07:58:14.234Z,101458.88
2018-06-27T08:00:42.377Z,101456.79
2018-06-27T08:03:10.457Z,101455.19
2018-06-27T08:05:38.492Z,101459.16
2018-06-27T08:08:06.574Z,101458.75
2018-06-27T08:10:34.668Z,101459.53
2018-06-27T08:13:02.719Z,101457.16
2018-06-27T08:15:30.783Z,101462.87
2018-06-27T08:17:58.928Z,101459.68
2018-06-27T08:20:26.912Z,101456.47
2018-06-27T08:22:54.964Z,101448.41
2018-06-27T08:25:23.219Z,101456.54
2018-06-27T08:27:51.331Z,101464.14
2018-06-27T08:30:19.375Z,101463.91
2018-06-27T08:32:47.431Z,101465.17
2018-06-27T08:35:15.471Z,101458.06
2018-06-27T08:37:43.526Z,101457.28
2018-06-27T08:40:11.655Z,101454.23
2018-06-27T08:42:39.692Z,101460.55
2018-06-27T08:45:07.767Z,101450.06
2018-06-27T08:47:35.816Z,101454.22
2018-06-27T08:50:04.008Z,101450.24
2018-06-27T08:52:32.054Z,101445.08
2018-06-27T08:55:00.116Z,101443.77
2018-06-27T08:57:28.166Z,101439.89
2018-06-27T08:59:56.219Z,101438.98
2018-06-27T09:02:24.262Z,101432.50
2018-06-27T09:04:52.312Z,101438.56
2018-06-27T09:07:20.375Z,101427.89
2018-06-27T09:09:48.428Z,101426.64
2018-06-27T09:12:16.625Z,101424.05
2018-06-27T09:14:44.698Z,101427.22
2018-06-27T09:17:12.844Z,101426.84
2018-06-27T09:19:40.897Z,101427.06
2018-06-27T09:22:08.980Z,101424.13
2018-06-27T09:24:37.027Z,101427.45
2018-06-27T09:27:05.140Z,101415.74
2018-06-27T09:29:33.191Z,101417.45
2018-06-27T09:32:01.261Z,101412.32
2018-06-27T09:34:29.300Z,101412.32
2018-06-27T09:36:57.324Z,101415.33
2018-06-27T09:39:25.371Z,101411.44
2018-06-27T09:41:53.452Z,101405.06
2018-06-27T09:44:21.528Z,101403.63
2018-06-27T09:46:49.581Z,101396.56
2018-06-27T09:49:17.637Z,101395.92
2018-06-27T09:51:45.695Z,101395.34
2018-06-27T09:54:13.844Z,101398.07
2018-06-27T09:56:42.125Z,101397.09
2018-06-27T09:59:10.124Z,101404.70
2018-06-27T10:01:38.139Z,101403.63
2018-06-27T10:04:06.488Z,101399.01
2018-06-27T10:06:34.538Z,101399.07
2018-06-27T10:09:02.576Z,101398.28
2018-06-27T10:11:30.644Z,101396.02
2018-06-27T10:13:58.705Z,101398.34
2018-06-27T10:16:26.800Z,101381.24
2018-06-27T10:18:54.835Z,101379.87
2018-06-27T10:21:22.879Z,101389.44
2018-06-27T10:23:51.074Z,101383.84
2018-06-27T10:26:19.112Z,101386.73
2018-06-27T10:28:47.140Z,101391.94
2018-06-27T10:31:15.224Z,101384.72
2018-06-27T10:33:43.265Z,101387.30
2018-06-27T10:36:11.346Z,101386.99
2018-06-27T10:38:39.417Z,101393.50
2018-06-27T10:41:07.529Z,101394.84
2018-06-27T10:43:35.740Z,101389.00
2018-06-27T10:46:03.820Z,101390.86
2018-06-27T10:48:31.896Z,101384.85
2018-06-27T10:51:00.017Z,101391.51
2018-06-27T10:53:28.040Z,101382.40
2018-06-27T10:55:56.343Z,101385.87
2018-06-27T10:58:24.415Z,101382.08
2018-06-27T11:00:52.574Z,101393.59
2018-06-27T11:03:21.691Z,101239.35
2018-06-27T11:05:51.896Z,101385.98
2018-06-27T11:08:20.028Z,101382.32
2018-06-27T11:10:48.337Z,101380.15
2018-06-27T11:13:16.391Z,101402.41
2018-06-27T11:15:44.468Z,101381.52
2018-06-27T11:18:12.532Z,101385.38
2018-06-27T11:20:40.569Z,101373.21
2018-06-27T11:23:08.632Z,101380.09
2018-06-27T11:25:36.696Z,101376.16
2018-06-27T11:28:04.728Z,101386.06
2018-06-27T11:30:32.772Z,101370.69
2018-06-27T11:33:00.894Z,101371.94
2018-06-27T11:35:29.069Z,101371.17
2018-06-27T11:37:57.092Z,101361.39
2018-06-27T11:40:25.146Z,101355.06
2018-06-27T11:42:53.235Z,101363.64
2018-06-27T11:45:21.271Z,101363.88
2018-06-27T11:47:49.312Z,101367.94
2018-06-27T11:50:17.356Z,101371.65
2018-06-27T11:52:45.400Z,101348.86
2018-06-27T11:55:13.733Z,101370.72
2018-06-27T11:57:43.384Z,101358.89
2018-06-27T12:00:11.463Z,101356.07
2018-06-27T12:02:39.856Z,101355.91
2018-06-27T12:05:08.948Z,101371.09
2018-06-27T12:07:37.007Z,101370.20
2018-06-27T12:10:05.303Z,101357.08
2018-06-27T12:12:33.367Z,101355.06
2018-06-27T12:15:01.457Z,101356.91
2018-06-27T12:17:29.511Z,101344.91
2018-06-27T12:19:57.656Z,101346.80
2018-06-27T12:22:25.699Z,101353.20
2018-06-27T12:24:53.735Z,101350.59
2018-06-27T12:27:21.787Z,101336.55
2018-06-27T12:29:49.840Z,101339.69
2018-06-27T12:32:17.886Z,101338.41
2018-06-27T12:34:45.916Z,101335.13
2018-06-27T12:37:13.950Z,101324.95
2018-06-27T12:39:41.996Z,101324.15
2018-06-27T12:42:10.027Z,101323.81
2018-06-27T12:44:38.729Z,101315.84
2018-06-27T12:47:06.759Z,101326.31
2018-06-27T12:49:34.812Z,101316.64
2018-06-27T12:52:02.936Z,101315.53
2018-06-27T12:54:30.987Z,101316.20
2018-06-27T12:56:59.024Z,101316.45
2018-06-27T12:59:27.668Z,101314.38
2018-06-27T13:01:55.708Z,101310.86
2018-06-27T13:04:23.800Z,101297.00
2018-06-27T13:06:51.844Z,101303.56
2018-06-27T13:09:19.984Z,101298.45
2018-06-27T13:11:47.936Z,101310.23
2018-06-27T13:14:15.991Z,101301.72
2018-06-27T13:16:44.032Z,101303.03
2018-06-27T13:19:12.076Z,101289.73
2018-06-27T13:21:40.396Z,101295.67
2018-06-27T13:24:08.432Z,101287.35
2018-06-27T13:26:36.492Z,101301.01
2018-06-27T13:29:04.666Z,101289.80
2018-06-27T13:31:32.704Z,101277.52
2018-06-27T13:34:01.023Z,101282.44
2018-06-27T13:36:29.109Z,101278.52
2018-06-27T13:38:57.168Z,101285.81
2018-06-27T13:41:25.248Z,101274.91
2018-06-27T13:43:53.402Z,101286.27
2018-06-27T13:46:21.460Z,101284.75
2018-06-27T13:48:49.485Z,101276.64
2018-06-27T13:51:17.815Z,101278.42
2018-06-27T13:53:45.860Z,101270.38
2018-06-27T13:56:13.983Z,101277.73
2018-06-27T13:58:42.106Z,101256.78
2018-06-27T14:01:10.196Z,101266.44
2018-06-27T14:03:38.268Z,101268.44
2018-06-27T14:06:06.332Z,101278.30
2018-06-27T14:08:34.372Z,101266.25
2018-06-27T14:11:02.444Z,101261.34
2018-06-27T14:13:30.717Z,101258.86
2018-06-27T14:15:58.760Z,101258.62
2018-06-27T14:18:26.804Z,101257.73
2018-06-27T14:20:54.881Z,101258.48
2018-06-27T14:23:22.911Z,101252.34
2018-06-27T14:25:50.956Z,101257.61
2018-06-27T14:28:19.111Z,101253.16
2018-06-27T14:30:47.171Z,101252.26
2018-06-27T14:33:15.359Z,101254.02
2018-06-27T14:35:43.369Z,101254.34
2018-06-27T14:38:11.573Z,101255.69
2018-06-27T14:40:39.890Z,101248.02
2018-06-27T14:43:08.047Z,101256.27
2018-06-27T14:45:36.105Z,101253.09
2018-06-27T14:48:04.339Z,101241.51
2018-06-27T14:50:32.214Z,101249.38
2018-06-27T14:53:00.261Z,101246.22
2018-06-27T14:55:28.317Z,101234.92
2018-06-27T14:57:56.365Z,101241.19
2018-06-27T15:00:24.405Z,101237.42
2018-06-27T15:02:52.474Z,101253.34
2018-06-27T15:05:20.532Z,101233.34
2018-06-27T15:07:48.600Z,101233.19
2018-06-27T15:10:16.828Z,101234.84
2018-06-27T15:12:44.961Z,101237.30
2018-06-27T15:15:13.103Z,101220.88
2018-06-27T15:17:41.284Z,101217.80
2018-06-27T15:20:10.031Z,101225.68
2018-06-27T15:22:38.833Z,101217.98
2018-06-27T15:25:07.293Z,101218.66
2018-06-27T15:27:35.411Z,101218.28
2018-06-27T15:30:03.453Z,101211.41
2018-06-27T15:32:31.624Z,101211.06
2018-06-27T15:34:59.694Z,101214.83
2018-06-27T15:37:27.708Z,101214.23
2018-06-27T15:39:55.777Z,101206.76
2018-06-27T15:42:23.812Z,101201.91
2018-06-27T15:44:51.860Z,101204.02
2018-06-27T15:47:19.904Z,101196.41
2018-06-27T15:49:47.948Z,101194.66
2018-06-27T15:52:15.996Z,101196.86
2018-06-27T15:54:44.060Z,101195.86
2018-06-27T15:57:12.227Z,101200.83
2018-06-27T15:59:45.200Z,101208.97
2018-06-27T16:02:13.251Z,101198.71
2018-06-27T16:04:41.279Z,101197.91
2018-06-27T16:07:09.300Z,101206.31
2018-06-27T16:09:37.431Z,101210.66
2018-06-27T16:12:05.533Z,101206.02
2018-06-27T16:14:33.676Z,101207.53
2018-06-27T16:17:01.959Z,101201.98
2018-06-27T16:19:29.959Z,101199.03
2018-06-27T16:21:58.028Z,101197.05
2018-06-27T16:24:26.246Z,101209.42
2018-06-27T16:26:54.274Z,101198.48
2018-06-27T16:29:22.360Z,101200.63
2018-06-27T16:31:50.416Z,101200.09
2018-06-27T16:34:18.680Z,101207.14
2018-06-27T16:36:46.705Z,101198.97
2018-06-27T16:39:14.881Z,101201.38
2018-06-27T16:41:43.234Z,101201.95
2018-06-27T16:44:11.896Z,101203.41
2018-06-27T16:46:40.114Z,101200.23
2018-06-27T16:49:09.168Z,101196.36
2018-06-27T16:51:37.495Z,101196.55
2018-06-27T16:54:05.779Z,101199.51
2018-06-27T16:56:33.908Z,101203.48
2018-06-27T16:59:02.132Z,101168.59
2018-06-27T17:01:30.414Z,101207.41
2018-06-27T17:03:58.560Z,101201.79
2018-06-27T17:06:26.590Z,101204.97
2018-06-27T17:08:54.628Z,101206.37
2018-06-27T17:11:22.867Z,101198.39
2018-06-27T17:13:50.900Z,101199.29
2018-06-27T17:16:18.996Z,101197.88
2018-06-27T17:18:47.170Z,101194.31
2018-06-27T17:21:15.471Z,101197.62
2018-06-27T17:23:43.657Z,101205.00
2018-06-27T17:26:11.869Z,101200.77
2018-06-27T17:28:39.976Z,101196.72
2018-06-27T17:31:08.316Z,101194.25
2018-06-27T17:33:36.352Z,101193.96
2018-06-27T17:36:04.408Z,101189.63
2018-06-27T17:38:32.600Z,101191.11
2018-06-27T17:41:00.712Z,101194.52
2018-06-27T17:43:28.784Z,101193.84
2018-06-27T17:45:56.857Z,101195.05
2018-06-27T17:48:24.908Z,101199.31
2018-06-27T17:50:52.929Z,101180.13
2018-06-27T17:53:20.992Z,101197.36
2018-06-27T17:55:49.027Z,101197.36
2018-06-27T17:58:17.102Z,101201.10
2018-06-27T18:00:45.135Z,101200.59
2018-06-27T18:03:13.188Z,101201.19
2018-06-27T18:05:41.236Z,101208.25
2018-06-27T18:08:09.300Z,101205.62
2018-06-27T18:10:37.311Z,101209.14
2018-06-27T18:13:05.356Z,101201.34
2018-06-27T18:15:33.387Z,101204.47
2018-06-27T18:18:01.425Z,101207.16
2018-06-27T18:20:29.475Z,101209.42
2018-06-27T18:22:57.504Z,101205.64
2018-06-27T18:25:25.575Z,101213.34
2018-06-27T18:27:53.628Z,101213.19
2018-06-27T18:30:21.672Z,101210.92
2018-06-27T18:32:49.727Z,101208.15
2018-06-27T18:35:17.788Z,101203.92
2018-06-27T18:37:45.819Z,101213.89
2018-06-27T18:40:13.881Z,101192.19
2018-06-27T18:42:41.903Z,101208.55
2018-06-27T18:45:09.993Z,101214.69
2018-06-27T18:47:38.074Z,101210.09
2018-06-27T18:50:06.135Z,101214.64
2018-06-27T18:52:34.167Z,101213.92
2018-06-27T18:55:02.275Z,101221.70
2018-06-27T18:57:30.311Z,101218.41
2018-06-27T18:59:58.359Z,101221.52
2018-06-27T19:02:26.388Z,101212.18
2018-06-27T19:04:54.464Z,101211.62
2018-06-27T19:07:22.520Z,101219.38
2018-06-27T19:09:50.597Z,101224.48
2018-06-27T19:12:18.768Z,101225.80
2018-06-27T19:14:47.021Z,101230.88
2018-06-27T19:17:15.252Z,101229.17
2018-06-27T19:19:43.527Z,101233.89
2018-06-27T19:22:11.730Z,101228.77
2018-06-27T19:24:39.771Z,101229.46
2018-06-27T19:27:07.961Z,101237.13
2018-06-27T19:29:35.994Z,101234.81
2018-06-27T19:32:04.003Z,101238.69
2018-06-27T19:34:32.076Z,101231.73
2018-06-27T19:37:00.378Z,101240.63
2018-06-27T19:39:37.465Z,101238.90
2018-06-27T19:41:56.561Z,101246.00
2018-06-27T19:44:24.616Z,101247.25
2018-06-27T19:46:52.712Z,101247.13
2018-06-27T19:49:20.903Z,101249.20
2018-06-27T19:51:49.114Z,101245.62
2018-06-27T19:54:17.179Z,101249.70
2018-06-27T19:56:45.292Z,101248.95
2018-06-27T19:59:13.339Z,101250.17
2018-06-27T20:01:41.420Z,101256.81
2018-06-27T20:04:21.921Z,101254.66
2018-06-27T20:06:49.909Z,101264.93
2018-06-27T20:09:18.060Z,101262.14
2018-06-27T20:11:46.112Z,101257.19
2018-06-27T20:14:14.232Z,101261.63
2018-06-27T20:16:42.334Z,101266.27
2018-06-27T20:19:10.414Z,101263.30
2018-06-27T20:21:38.430Z,101264.28
2018-06-27T20:24:06.444Z,101268.11
2018-06-27T20:26:34.590Z,101267.52
2018-06-27T20:29:02.641Z,101266.95
2018-06-27T20:31:30.700Z,101262.35
2018-06-27T20:33:58.745Z,101264.76
2018-06-27T20:36:26.804Z,101265.16
2018-06-27T20:38:54.877Z,101264.34
2018-06-27T20:41:22.920Z,101267.76
2018-06-27T20:43:50.964Z,101268.55
2018-06-27T20:46:19.019Z,101273.13
2018-06-27T20:48:47.221Z,101277.13
2018-06-27T20:51:15.300Z,101284.11
2018-06-27T20:53:43.564Z,101284.69
2018-06-27T20:56:11.611Z,101283.67
2018-06-27T20:58:39.704Z,101284.23
2018-06-27T21:01:07.800Z,101289.61
2018-06-27T21:03:35.840Z,101289.39
2018-06-27T21:06:03.916Z,101290.75
2018-06-27T21:08:31.991Z,101292.53
2018-06-27T21:11:00.053Z,101290.70
2018-06-27T21:13:28.143Z,101291.48
2018-06-27T21:15:56.234Z,101294.05
2018-06-27T21:18:24.297Z,101295.84
2018-06-27T21:23:26.732Z,101301.17
2018-06-27T21:25:54.841Z,101299.72
2018-06-27T21:28:22.852Z,101301.28
2018-06-27T21:30:51.708Z,101302.44
2018-06-27T21:33:19.779Z,101297.78
2018-06-27T21:35:47.828Z,101306.11
2018-06-27T21:38:16.089Z,101301.66
2018-06-27T21:40:44.221Z,101298.61
2018-06-27T21:43:12.308Z,101299.13
2018-06-27T21:45:40.484Z,101301.48
2018-06-27T21:48:08.667Z,101301.61
2018-06-27T21:50:36.769Z,101308.73
2018-06-27T21:53:05.509Z,101315.09
2018-06-27T21:55:33.600Z,101311.27
2018-06-27T21:58:01.664Z,101314.20
2018-06-27T22:00:31.895Z,101315.33
2018-06-27T22:03:00.489Z,101318.39
2018-06-27T22:05:28.532Z,101316.80
2018-06-27T22:07:56.571Z,101314.09
2018-06-27T22:10:24.686Z,101311.87
2018-06-27T22:12:52.917Z,101314.22
2018-06-27T22:15:20.996Z,101312.36
2018-06-27T22:17:49.045Z,101316.89
2018-06-27T22:20:17.144Z,101320.77
2018-06-27T22:22:45.299Z,101322.93
2018-06-27T22:25:13.439Z,101319.31
2018-06-27T22:27:41.580Z,101323.61
2018-06-27T22:30:09.781Z,101321.16
2018-06-27T22:32:37.854Z,101319.27
2018-06-27T22:35:05.953Z,101317.63
2018-06-27T22:37:34.096Z,101321.39
2018-06-27T22:40:02.232Z,101317.35
2018-06-27T22:42:30.321Z,101319.66
2018-06-27T22:44:58.375Z,101316.80
2018-06-27T22:47:26.399Z,101321.28
2018-06-27T22:49:54.455Z,101318.02
2018-06-27T22:52:22.496Z,101313.94
2018-06-27T22:54:50.548Z,101320.27
2018-06-27T22:57:18.601Z,101323.03
2018-06-27T22:59:46.669Z,101323.12
2018-06-27T23:02:14.740Z,101326.83
2018-06-27T23:04:42.841Z,101322.69
2018-06-27T23:07:10.935Z,101326.51
2018-06-27T23:09:38.998Z,101325.95
2018-06-27T23:12:07.087Z,101325.40
2018-06-27T23:14:35.123Z,101327.82
2018-06-27T23:17:03.172Z,101328.36
2018-06-27T23:19:31.220Z,101329.10
2018-06-27T23:21:59.265Z,101325.86
2018-06-27T23:24:27.403Z,101324.63
2018-06-27T23:26:55.449Z,101325.21
2018-06-27T23:29:23.493Z,101328.38
2018-06-27T23:31:51.524Z,101333.88
2018-06-27T23:34:19.573Z,101334.61
2018-06-27T23:36:47.638Z,101331.92
2018-06-27T23:39:15.720Z,101334.73
2018-06-27T23:41:44.460Z,101328.44
2018-06-27T23:44:12.601Z,101326.67
2018-06-27T23:46:40.676Z,101321.64
2018-06-27T23:49:08.801Z,101327.20
2018-06-27T23:51:36.938Z,101329.09
2018-06-27T23:54:05.363Z,101326.90
2018-06-27T23:56:33.463Z,101328.28
2018-06-27T23:59:01.540Z,101325.64
